Terminal Aerodrome Forecast
Issued by NWS

Home | Current Version | Previous Version | Text Only | Print | Product List | Glossary On
Versions: 1 2 3 4 5 6 7 8 9 10 11 12 13 14 15 16 17 18
000
FTUS46 KLOX 241700
TAFLGB
TAF
KLGB 241735Z 2418/2518 00000KT P6SM SKC
     FM242300 29010KT P6SM FEW200
     FM250300 VRB03KT P6SM FEW200
     FM250900 VRB03KT P6SM BKN020=

USA.gov is the U.S. government's official web portal to all federal, state and local government web resources and services.